Neck City, Missouri
Current Conditions -  °F | °C
As of 6:53 PM on Monday 26 Jan 2015 (Local Time) from KJLN Reporting Station
Clear Clear  
Wind Chill: 44°   Ceiling: Unl
Heat Index: 47°   Visibility: 10mi
Dew Point: 33°   Wind: 7mph
Humidity: 59%   Direction: 220°SW
Pressure: 29.99"   Gusts: NA
Location:  37.26°N, 94.44°W
Report Text: KJLN 270053Z 22006KT 10SM CLR 08/01 A2999 RMK AO2 SLP160 T00830006
Loading
Personal Weather Stations






























Interactive Weather Map New forecast layout! Learn more

10-Day Weather Forecast

Advertisements
Track Severe Weather on mobile